sensor_id;sensor_type;location;lat;lon;timestamp;P1;durP1;ratioP1;P2;durP2;ratioP2
63444;SDS011;49573;47.682;9.170;2023-04-15T00:02:23;5.03;;;2.13;;
63444;SDS011;49573;47.682;9.170;2023-04-15T00:05:09;4.25;;;2.20;;
63444;SDS011;49573;47.682;9.170;2023-04-15T00:07:55;5.32;;;2.25;;
63444;SDS011;49573;47.682;9.170;2023-04-15T00:10:41;5.22;;;2.05;;
63444;SDS011;49573;47.682;9.170;2023-04-15T00:13:29;3.83;;;2.03;;
63444;SDS011;49573;47.682;9.170;2023-04-15T00:16:16;5.88;;;2.30;;
63444;SDS011;49573;47.682;9.170;2023-04-15T00:19:02;4.63;;;1.85;;
63444;SDS011;49573;47.682;9.170;2023-04-15T00:21:48;5.65;;;2.40;;
63444;SDS011;49573;47.682;9.170;2023-04-15T00:24:34;4.03;;;2.20;;
63444;SDS011;49573;47.682;9.170;2023-04-15T00:27:20;5.35;;;2.15;;
63444;SDS011;49573;47.682;9.170;2023-04-15T00:30:07;4.85;;;2.30;;
63444;SDS011;49573;47.682;9.170;2023-04-15T00:32:54;4.47;;;2.47;;
63444;SDS011;49573;47.682;9.170;2023-04-15T00:35:40;4.10;;;2.38;;
63444;SDS011;49573;47.682;9.170;2023-04-15T00:38:26;4.13;;;2.42;;
63444;SDS011;49573;47.682;9.170;2023-04-15T00:41:12;5.15;;;2.17;;
63444;SDS011;49573;47.682;9.170;2023-04-15T00:43:58;4.78;;;2.58;;
63444;SDS011;49573;47.682;9.170;2023-04-15T00:46:46;3.88;;;2.17;;
63444;SDS011;49573;47.682;9.170;2023-04-15T00:49:35;5.82;;;2.75;;
63444;SDS011;49573;47.682;9.170;2023-04-15T00:52:21;7.35;;;2.55;;
63444;SDS011;49573;47.682;9.170;2023-04-15T00:55:07;4.47;;;2.20;;
63444;SDS011;49573;47.682;9.170;2023-04-15T00:57:54;3.83;;;2.22;;
63444;SDS011;49573;47.682;9.170;2023-04-15T01:00:41;4.47;;;2.33;;
63444;SDS011;49573;47.682;9.170;2023-04-15T01:03:29;5.18;;;2.30;;
63444;SDS011;49573;47.682;9.170;2023-04-15T01:06:15;7.57;;;2.58;;
63444;SDS011;49573;47.682;9.170;2023-04-15T01:09:01;5.90;;;2.50;;
63444;SDS011;49573;47.682;9.170;2023-04-15T01:11:47;7.95;;;2.45;;
63444;SDS011;49573;47.682;9.170;2023-04-15T01:14:34;5.05;;;2.33;;
63444;SDS011;49573;47.682;9.170;2023-04-15T01:17:20;4.60;;;2.47;;
63444;SDS011;49573;47.682;9.170;2023-04-15T01:20:08;3.67;;;2.30;;
63444;SDS011;49573;47.682;9.170;2023-04-15T01:22:55;3.80;;;2.40;;
63444;SDS011;49573;47.682;9.170;2023-04-15T01:25:43;4.10;;;2.40;;
63444;SDS011;49573;47.682;9.170;2023-04-15T01:28:29;6.10;;;2.60;;
63444;SDS011;49573;47.682;9.170;2023-04-15T01:31:15;6.17;;;2.70;;
63444;SDS011;49573;47.682;9.170;2023-04-15T01:34:02;6.60;;;2.55;;
63444;SDS011;49573;47.682;9.170;2023-04-15T01:36:48;6.35;;;3.00;;
63444;SDS011;49573;47.682;9.170;2023-04-15T01:39:34;6.13;;;2.70;;
63444;SDS011;49573;47.682;9.170;2023-04-15T01:42:21;4.40;;;2.63;;
63444;SDS011;49573;47.682;9.170;2023-04-15T01:45:08;4.45;;;2.60;;
63444;SDS011;49573;47.682;9.170;2023-04-15T01:47:54;5.57;;;2.45;;
63444;SDS011;49573;47.682;9.170;2023-04-15T01:50:40;5.25;;;2.35;;
63444;SDS011;49573;47.682;9.170;2023-04-15T01:53:27;6.22;;;2.72;;
63444;SDS011;49573;47.682;9.170;2023-04-15T01:56:13;4.18;;;2.60;;
63444;SDS011;49573;47.682;9.170;2023-04-15T01:59:01;5.65;;;2.80;;
63444;SDS011;49573;47.682;9.170;2023-04-15T02:01:48;4.63;;;2.60;;
63444;SDS011;49573;47.682;9.170;2023-04-15T02:04:34;5.32;;;2.40;;
63444;SDS011;49573;47.682;9.170;2023-04-15T02:07:20;5.97;;;2.50;;
63444;SDS011;49573;47.682;9.170;2023-04-15T02:10:06;4.38;;;2.78;;
63444;SDS011;49573;47.682;9.170;2023-04-15T02:12:53;5.57;;;2.63;;
63444;SDS011;49573;47.682;9.170;2023-04-15T02:15:41;6.40;;;2.60;;
63444;SDS011;49573;47.682;9.170;2023-04-15T02:18:31;4.40;;;2.45;;
63444;SDS011;49573;47.682;9.170;2023-04-15T02:21:17;6.63;;;2.80;;
63444;SDS011;49573;47.682;9.170;2023-04-15T02:24:04;5.07;;;2.75;;
63444;SDS011;49573;47.682;9.170;2023-04-15T02:26:50;4.53;;;2.58;;
63444;SDS011;49573;47.682;9.170;2023-04-15T02:29:36;4.65;;;2.88;;
63444;SDS011;49573;47.682;9.170;2023-04-15T02:32:24;5.78;;;2.80;;
63444;SDS011;49573;47.682;9.170;2023-04-15T02:35:10;6.20;;;2.75;;
63444;SDS011;49573;47.682;9.170;2023-04-15T02:37:56;6.38;;;3.00;;
63444;SDS011;49573;47.682;9.170;2023-04-15T02:40:42;4.25;;;2.58;;
63444;SDS011;49573;47.682;9.170;2023-04-15T02:43:28;4.97;;;2.72;;
63444;SDS011;49573;47.682;9.170;2023-04-15T02:46:14;7.60;;;3.22;;
63444;SDS011;49573;47.682;9.170;2023-04-15T02:49:02;6.47;;;3.13;;
63444;SDS011;49573;47.682;9.170;2023-04-15T02:51:48;5.88;;;2.63;;
63444;SDS011;49573;47.682;9.170;2023-04-15T02:54:35;4.32;;;2.58;;
63444;SDS011;49573;47.682;9.170;2023-04-15T02:57:21;6.45;;;2.72;;
63444;SDS011;49573;47.682;9.170;2023-04-15T03:00:07;5.40;;;2.90;;
63444;SDS011;49573;47.682;9.170;2023-04-15T03:02:57;5.20;;;2.90;;
63444;SDS011;49573;47.682;9.170;2023-04-15T03:05:44;4.32;;;2.78;;
63444;SDS011;49573;47.682;9.170;2023-04-15T03:08:30;4.40;;;2.80;;
63444;SDS011;49573;47.682;9.170;2023-04-15T03:11:17;4.50;;;2.70;;
63444;SDS011;49573;47.682;9.170;2023-04-15T03:14:03;5.47;;;2.85;;
63444;SDS011;49573;47.682;9.170;2023-04-15T03:16:49;7.78;;;3.10;;
63444;SDS011;49573;47.682;9.170;2023-04-15T03:19:36;9.23;;;3.10;;
63444;SDS011;49573;47.682;9.170;2023-04-15T03:22:23;6.40;;;2.75;;
63444;SDS011;49573;47.682;9.170;2023-04-15T03:25:10;4.57;;;2.70;;
63444;SDS011;49573;47.682;9.170;2023-04-15T03:27:57;5.75;;;3.08;;
63444;SDS011;49573;47.682;9.170;2023-04-15T03:30:43;8.10;;;2.78;;
63444;SDS011;49573;47.682;9.170;2023-04-15T03:33:30;4.57;;;2.90;;
63444;SDS011;49573;47.682;9.170;2023-04-15T03:36:16;4.90;;;3.10;;
63444;SDS011;49573;47.682;9.170;2023-04-15T03:39:04;6.35;;;2.90;;
63444;SDS011;49573;47.682;9.170;2023-04-15T03:41:50;5.80;;;2.90;;
63444;SDS011;49573;47.682;9.170;2023-04-15T03:44:36;6.47;;;2.95;;
63444;SDS011;49573;47.682;9.170;2023-04-15T03:47:23;5.60;;;2.58;;
63444;SDS011;49573;47.682;9.170;2023-04-15T03:50:09;4.78;;;2.60;;
63444;SDS011;49573;47.682;9.170;2023-04-15T03:52:56;5.35;;;2.85;;
63444;SDS011;49573;47.682;9.170;2023-04-15T03:55:43;5.28;;;2.75;;
63444;SDS011;49573;47.682;9.170;2023-04-15T03:58:30;5.35;;;2.53;;
63444;SDS011;49573;47.682;9.170;2023-04-15T04:01:16;4.63;;;2.90;;
63444;SDS011;49573;47.682;9.170;2023-04-15T04:04:02;5.25;;;2.83;;
63444;SDS011;49573;47.682;9.170;2023-04-15T04:06:49;7.38;;;3.25;;
63444;SDS011;49573;47.682;9.170;2023-04-15T04:09:35;7.38;;;3.80;;
63444;SDS011;49573;47.682;9.170;2023-04-15T04:12:24;8.15;;;3.33;;
63444;SDS011;49573;47.682;9.170;2023-04-15T04:15:11;5.18;;;3.17;;
63444;SDS011;49573;47.682;9.170;2023-04-15T04:17:57;7.47;;;3.20;;
63444;SDS011;49573;47.682;9.170;2023-04-15T04:20:43;6.75;;;2.95;;
63444;SDS011;49573;47.682;9.170;2023-04-15T04:23:30;5.47;;;2.72;;
63444;SDS011;49573;47.682;9.170;2023-04-15T04:26:16;7.90;;;3.35;;
63444;SDS011;49573;47.682;9.170;2023-04-15T04:29:05;4.75;;;2.67;;
63444;SDS011;49573;47.682;9.170;2023-04-15T04:31:51;4.65;;;2.67;;
63444;SDS011;49573;47.682;9.170;2023-04-15T04:34:38;6.15;;;3.45;;
63444;SDS011;49573;47.682;9.170;2023-04-15T04:37:24;5.60;;;3.30;;
63444;SDS011;49573;47.682;9.170;2023-04-15T04:40:11;7.72;;;3.17;;
63444;SDS011;49573;47.682;9.170;2023-04-15T04:42:58;5.57;;;2.92;;
63444;SDS011;49573;47.682;9.170;2023-04-15T04:45:46;5.10;;;3.05;;
63444;SDS011;49573;47.682;9.170;2023-04-15T04:48:32;8.75;;;3.83;;
63444;SDS011;49573;47.682;9.170;2023-04-15T04:51:19;6.32;;;3.20;;
63444;SDS011;49573;47.682;9.170;2023-04-15T04:54:05;9.48;;;3.00;;
63444;SDS011;49573;47.682;9.170;2023-04-15T04:56:52;5.47;;;3.53;;
63444;SDS011;49573;47.682;9.170;2023-04-15T04:59:38;4.72;;;2.95;;
63444;SDS011;49573;47.682;9.170;2023-04-15T05:02:26;5.90;;;3.03;;
63444;SDS011;49573;47.682;9.170;2023-04-15T05:05:12;6.00;;;3.20;;
63444;SDS011;49573;47.682;9.170;2023-04-15T05:07:59;7.25;;;3.00;;
63444;SDS011;49573;47.682;9.170;2023-04-15T05:10:45;6.43;;;3.80;;
63444;SDS011;49573;47.682;9.170;2023-04-15T05:13:32;6.43;;;3.38;;
63444;SDS011;49573;47.682;9.170;2023-04-15T05:16:19;9.02;;;4.10;;
63444;SDS011;49573;47.682;9.170;2023-04-15T05:19:07;13.00;;;7.65;;
63444;SDS011;49573;47.682;9.170;2023-04-15T05:21:53;13.02;;;8.77;;
63444;SDS011;49573;47.682;9.170;2023-04-15T05:24:39;13.43;;;8.30;;
63444;SDS011;49573;47.682;9.170;2023-04-15T05:27:26;12.23;;;6.28;;
63444;SDS011;49573;47.682;9.170;2023-04-15T05:30:12;7.13;;;4.47;;
63444;SDS011;49573;47.682;9.170;2023-04-15T05:32:59;6.30;;;4.18;;
63444;SDS011;49573;47.682;9.170;2023-04-15T05:35:46;7.72;;;3.65;;
63444;SDS011;49573;47.682;9.170;2023-04-15T05:38:33;8.68;;;4.45;;
63444;SDS011;49573;47.682;9.170;2023-04-15T05:41:19;7.72;;;4.25;;
63444;SDS011;49573;47.682;9.170;2023-04-15T05:44:05;8.90;;;4.47;;
63444;SDS011;49573;47.682;9.170;2023-04-15T05:46:52;6.50;;;4.05;;
63444;SDS011;49573;47.682;9.170;2023-04-15T05:49:38;8.68;;;4.00;;
63444;SDS011;49573;47.682;9.170;2023-04-15T05:52:26;7.25;;;3.50;;
63444;SDS011;49573;47.682;9.170;2023-04-15T05:55:13;8.32;;;3.78;;
63444;SDS011;49573;47.682;9.170;2023-04-15T05:57:59;5.53;;;3.30;;
63444;SDS011;49573;47.682;9.170;2023-04-15T06:00:45;10.43;;;3.63;;
63444;SDS011;49573;47.682;9.170;2023-04-15T06:03:32;9.05;;;3.63;;
63444;SDS011;49573;47.682;9.170;2023-04-15T06:06:18;7.13;;;3.58;;
63444;SDS011;49573;47.682;9.170;2023-04-15T06:09:06;9.48;;;3.75;;
63444;SDS011;49573;47.682;9.170;2023-04-15T06:11:53;6.72;;;3.42;;
63444;SDS011;49573;47.682;9.170;2023-04-15T06:14:40;7.13;;;4.30;;
63444;SDS011;49573;47.682;9.170;2023-04-15T06:17:26;8.18;;;4.45;;
63444;SDS011;49573;47.682;9.170;2023-04-15T06:20:13;8.80;;;3.75;;
63444;SDS011;49573;47.682;9.170;2023-04-15T06:25:48;6.72;;;3.83;;
63444;SDS011;49573;47.682;9.170;2023-04-15T06:28:34;7.45;;;3.70;;
63444;SDS011;49573;47.682;9.170;2023-04-15T06:31:20;8.20;;;3.58;;
63444;SDS011;49573;47.682;9.170;2023-04-15T06:34:07;7.10;;;3.33;;
63444;SDS011;49573;47.682;9.170;2023-04-15T06:36:53;6.00;;;3.17;;
63444;SDS011;49573;47.682;9.170;2023-04-15T06:39:40;5.68;;;2.80;;
63444;SDS011;49573;47.682;9.170;2023-04-15T06:42:28;9.73;;;3.33;;
63444;SDS011;49573;47.682;9.170;2023-04-15T06:45:15;5.95;;;3.10;;
63444;SDS011;49573;47.682;9.170;2023-04-15T06:48:02;5.88;;;2.90;;
63444;SDS011;49573;47.682;9.170;2023-04-15T06:50:48;5.40;;;3.25;;
63444;SDS011;49573;47.682;9.170;2023-04-15T06:53:35;8.13;;;4.00;;
63444;SDS011;49573;47.682;9.170;2023-04-15T06:56:25;6.28;;;3.30;;
63444;SDS011;49573;47.682;9.170;2023-04-15T06:59:13;4.88;;;2.78;;
63444;SDS011;49573;47.682;9.170;2023-04-15T07:01:59;7.13;;;2.80;;
63444;SDS011;49573;47.682;9.170;2023-04-15T07:04:45;6.72;;;3.22;;
63444;SDS011;49573;47.682;9.170;2023-04-15T07:07:33;5.22;;;3.03;;
63444;SDS011;49573;47.682;9.170;2023-04-15T07:13:06;4.63;;;2.90;;
63444;SDS011;49573;47.682;9.170;2023-04-15T07:15:54;6.50;;;2.75;;
63444;SDS011;49573;47.682;9.170;2023-04-15T07:18:41;4.47;;;2.90;;
63444;SDS011;49573;47.682;9.170;2023-04-15T07:21:27;5.75;;;2.83;;
63444;SDS011;49573;47.682;9.170;2023-04-15T07:24:14;7.53;;;3.53;;
63444;SDS011;49573;47.682;9.170;2023-04-15T07:27:02;5.60;;;3.03;;
63444;SDS011;49573;47.682;9.170;2023-04-15T07:29:49;5.55;;;3.10;;
63444;SDS011;49573;47.682;9.170;2023-04-15T07:32:37;5.75;;;2.97;;
63444;SDS011;49573;47.682;9.170;2023-04-15T07:35:24;5.20;;;3.00;;
63444;SDS011;49573;47.682;9.170;2023-04-15T07:38:11;7.20;;;3.30;;
63444;SDS011;49573;47.682;9.170;2023-04-15T07:40:58;6.05;;;3.03;;
63444;SDS011;49573;47.682;9.170;2023-04-15T07:43:44;4.80;;;2.92;;
63444;SDS011;49573;47.682;9.170;2023-04-15T07:46:31;6.13;;;2.60;;
63444;SDS011;49573;47.682;9.170;2023-04-15T07:49:18;6.22;;;2.88;;
63444;SDS011;49573;47.682;9.170;2023-04-15T07:52:05;7.10;;;2.88;;
63444;SDS011;49573;47.682;9.170;2023-04-15T07:54:52;4.60;;;2.70;;
63444;SDS011;49573;47.682;9.170;2023-04-15T07:57:39;4.85;;;2.88;;
63444;SDS011;49573;47.682;9.170;2023-04-15T08:03:12;7.55;;;3.05;;
63444;SDS011;49573;47.682;9.170;2023-04-15T08:06:01;4.68;;;2.80;;
63444;SDS011;49573;47.682;9.170;2023-04-15T08:08:47;5.90;;;2.92;;
63444;SDS011;49573;47.682;9.170;2023-04-15T08:11:33;5.15;;;3.00;;
63444;SDS011;49573;47.682;9.170;2023-04-15T08:17:07;6.15;;;2.97;;
63444;SDS011;49573;47.682;9.170;2023-04-15T08:19:53;4.88;;;3.10;;
63444;SDS011;49573;47.682;9.170;2023-04-15T08:22:41;6.55;;;2.53;;
63444;SDS011;49573;47.682;9.170;2023-04-15T08:25:28;6.60;;;3.13;;
63444;SDS011;49573;47.682;9.170;2023-04-15T08:28:14;5.70;;;3.30;;
63444;SDS011;49573;47.682;9.170;2023-04-15T08:31:01;7.22;;;3.88;;
63444;SDS011;49573;47.682;9.170;2023-04-15T08:33:48;9.88;;;5.65;;
63444;SDS011;49573;47.682;9.170;2023-04-15T08:36:36;7.30;;;4.22;;
63444;SDS011;49573;47.682;9.170;2023-04-15T08:39:24;6.25;;;2.78;;
63444;SDS011;49573;47.682;9.170;2023-04-15T08:42:11;4.68;;;2.47;;
63444;SDS011;49573;47.682;9.170;2023-04-15T08:45:00;5.57;;;2.40;;
63444;SDS011;49573;47.682;9.170;2023-04-15T08:47:49;4.97;;;2.45;;
63444;SDS011;49573;47.682;9.170;2023-04-15T08:50:37;5.72;;;2.80;;
63444;SDS011;49573;47.682;9.170;2023-04-15T08:53:23;4.03;;;2.50;;
63444;SDS011;49573;47.682;9.170;2023-04-15T08:56:11;7.65;;;3.45;;
63444;SDS011;49573;47.682;9.170;2023-04-15T08:58:59;5.25;;;2.80;;
63444;SDS011;49573;47.682;9.170;2023-04-15T09:01:46;5.28;;;2.72;;
63444;SDS011;49573;47.682;9.170;2023-04-15T09:04:33;5.13;;;2.80;;
63444;SDS011;49573;47.682;9.170;2023-04-15T09:07:19;4.80;;;2.85;;
63444;SDS011;49573;47.682;9.170;2023-04-15T09:10:06;3.97;;;2.45;;
63444;SDS011;49573;47.682;9.170;2023-04-15T09:12:54;7.22;;;3.17;;
63444;SDS011;49573;47.682;9.170;2023-04-15T09:15:40;6.22;;;2.90;;
63444;SDS011;49573;47.682;9.170;2023-04-15T09:18:27;5.65;;;3.20;;
63444;SDS011;49573;47.682;9.170;2023-04-15T09:21:15;5.22;;;2.90;;
63444;SDS011;49573;47.682;9.170;2023-04-15T09:24:01;5.43;;;2.95;;
63444;SDS011;49573;47.682;9.170;2023-04-15T09:26:51;6.63;;;3.05;;
63444;SDS011;49573;47.682;9.170;2023-04-15T09:29:39;6.60;;;2.90;;
63444;SDS011;49573;47.682;9.170;2023-04-15T09:32:26;6.97;;;2.85;;
63444;SDS011;49573;47.682;9.170;2023-04-15T09:35:13;4.22;;;2.72;;
63444;SDS011;49573;47.682;9.170;2023-04-15T09:38:01;6.30;;;3.00;;
63444;SDS011;49573;47.682;9.170;2023-04-15T09:40:48;4.95;;;2.75;;
63444;SDS011;49573;47.682;9.170;2023-04-15T09:43:38;6.32;;;2.83;;
63444;SDS011;49573;47.682;9.170;2023-04-15T09:49:30;6.93;;;2.80;;
63444;SDS011;49573;47.682;9.170;2023-04-15T09:52:17;4.90;;;2.65;;
63444;SDS011;49573;47.682;9.170;2023-04-15T09:55:03;6.25;;;2.58;;
63444;SDS011;49573;47.682;9.170;2023-04-15T09:57:51;4.65;;;2.65;;
63444;SDS011;49573;47.682;9.170;2023-04-15T10:00:37;4.70;;;2.92;;
63444;SDS011;49573;47.682;9.170;2023-04-15T10:03:24;6.60;;;2.70;;
63444;SDS011;49573;47.682;9.170;2023-04-15T10:06:13;4.47;;;2.50;;
63444;SDS011;49573;47.682;9.170;2023-04-15T10:08:59;3.80;;;2.20;;
63444;SDS011;49573;47.682;9.170;2023-04-15T10:11:45;5.72;;;2.40;;
63444;SDS011;49573;47.682;9.170;2023-04-15T10:14:34;6.03;;;2.60;;
63444;SDS011;49573;47.682;9.170;2023-04-15T10:17:22;3.97;;;2.47;;
63444;SDS011;49573;47.682;9.170;2023-04-15T10:20:11;7.63;;;2.70;;
63444;SDS011;49573;47.682;9.170;2023-04-15T10:23:00;4.72;;;2.58;;
63444;SDS011;49573;47.682;9.170;2023-04-15T10:25:47;5.40;;;2.72;;
63444;SDS011;49573;47.682;9.170;2023-04-15T10:28:34;4.50;;;2.50;;
63444;SDS011;49573;47.682;9.170;2023-04-15T10:31:20;6.80;;;2.55;;
63444;SDS011;49573;47.682;9.170;2023-04-15T10:36:54;5.40;;;2.55;;
63444;SDS011;49573;47.682;9.170;2023-04-15T10:39:43;3.95;;;2.38;;
63444;SDS011;49573;47.682;9.170;2023-04-15T10:42:33;6.45;;;2.63;;
63444;SDS011;49573;47.682;9.170;2023-04-15T10:45:24;5.60;;;2.58;;
63444;SDS011;49573;47.682;9.170;2023-04-15T10:48:11;4.47;;;2.50;;
63444;SDS011;49573;47.682;9.170;2023-04-15T10:51:01;4.43;;;2.42;;
63444;SDS011;49573;47.682;9.170;2023-04-15T10:53:49;4.55;;;2.47;;
63444;SDS011;49573;47.682;9.170;2023-04-15T10:56:37;8.38;;;2.90;;
63444;SDS011;49573;47.682;9.170;2023-04-15T10:59:23;5.03;;;2.60;;
63444;SDS011;49573;47.682;9.170;2023-04-15T11:02:11;5.20;;;2.40;;
63444;SDS011;49573;47.682;9.170;2023-04-15T11:04:59;5.82;;;3.17;;
63444;SDS011;49573;47.682;9.170;2023-04-15T11:07:47;5.38;;;2.28;;
63444;SDS011;49573;47.682;9.170;2023-04-15T11:13:46;4.78;;;2.53;;
63444;SDS011;49573;47.682;9.170;2023-04-15T11:16:40;4.78;;;2.70;;
63444;SDS011;49573;47.682;9.170;2023-04-15T11:19:34;4.53;;;2.60;;
63444;SDS011;49573;47.682;9.170;2023-04-15T11:22:20;4.70;;;2.83;;
63444;SDS011;49573;47.682;9.170;2023-04-15T11:25:07;4.32;;;2.55;;
63444;SDS011;49573;47.682;9.170;2023-04-15T11:27:53;7.57;;;2.78;;
63444;SDS011;49573;47.682;9.170;2023-04-15T11:30:41;3.83;;;2.50;;
63444;SDS011;49573;47.682;9.170;2023-04-15T11:33:28;3.80;;;2.38;;
63444;SDS011;49573;47.682;9.170;2023-04-15T11:36:14;4.03;;;2.60;;
63444;SDS011;49573;47.682;9.170;2023-04-15T11:39:00;6.30;;;2.70;;
63444;SDS011;49573;47.682;9.170;2023-04-15T11:41:47;4.72;;;2.50;;
63444;SDS011;49573;47.682;9.170;2023-04-15T11:44:33;4.63;;;2.58;;
63444;SDS011;49573;47.682;9.170;2023-04-15T11:47:24;4.22;;;2.55;;
63444;SDS011;49573;47.682;9.170;2023-04-15T11:50:14;5.10;;;2.70;;
63444;SDS011;49573;47.682;9.170;2023-04-15T11:53:01;5.55;;;2.58;;
63444;SDS011;49573;47.682;9.170;2023-04-15T11:55:49;5.60;;;2.47;;
63444;SDS011;49573;47.682;9.170;2023-04-15T11:58:36;3.72;;;2.10;;
63444;SDS011;49573;47.682;9.170;2023-04-15T12:01:29;3.15;;;1.80;;
63444;SDS011;49573;47.682;9.170;2023-04-15T12:04:17;5.85;;;2.40;;
63444;SDS011;49573;47.682;9.170;2023-04-15T12:07:06;4.38;;;2.25;;
63444;SDS011;49573;47.682;9.170;2023-04-15T12:09:53;7.18;;;2.80;;
63444;SDS011;49573;47.682;9.170;2023-04-15T12:12:41;6.75;;;2.65;;
63444;SDS011;49573;47.682;9.170;2023-04-15T12:15:27;3.97;;;2.30;;
63444;SDS011;49573;47.682;9.170;2023-04-15T12:18:16;4.40;;;2.10;;
63444;SDS011;49573;47.682;9.170;2023-04-15T12:21:05;2.95;;;2.00;;
63444;SDS011;49573;47.682;9.170;2023-04-15T12:23:54;7.13;;;2.95;;
63444;SDS011;49573;47.682;9.170;2023-04-15T12:26:45;4.80;;;2.20;;
63444;SDS011;49573;47.682;9.170;2023-04-15T12:29:32;4.55;;;2.42;;
63444;SDS011;49573;47.682;9.170;2023-04-15T12:32:19;4.00;;;2.08;;
63444;SDS011;49573;47.682;9.170;2023-04-15T12:35:06;5.68;;;2.30;;
63444;SDS011;49573;47.682;9.170;2023-04-15T12:37:54;6.43;;;2.70;;
63444;SDS011;49573;47.682;9.170;2023-04-15T12:40:41;4.88;;;2.05;;
63444;SDS011;49573;47.682;9.170;2023-04-15T12:43:27;3.83;;;1.80;;
63444;SDS011;49573;47.682;9.170;2023-04-15T12:46:14;6.55;;;2.22;;
63444;SDS011;49573;47.682;9.170;2023-04-15T12:49:00;4.10;;;1.77;;
63444;SDS011;49573;47.682;9.170;2023-04-15T12:51:47;3.78;;;2.17;;
63444;SDS011;49573;47.682;9.170;2023-04-15T12:54:36;6.70;;;2.08;;
63444;SDS011;49573;47.682;9.170;2023-04-15T12:57:22;4.60;;;2.03;;
63444;SDS011;49573;47.682;9.170;2023-04-15T13:00:09;3.97;;;1.85;;
63444;SDS011;49573;47.682;9.170;2023-04-15T13:02:55;3.75;;;2.10;;
63444;SDS011;49573;47.682;9.170;2023-04-15T13:05:42;4.97;;;2.00;;
63444;SDS011;49573;47.682;9.170;2023-04-15T13:08:28;2.83;;;1.90;;
63444;SDS011;49573;47.682;9.170;2023-04-15T13:11:16;4.82;;;1.90;;
63444;SDS011;49573;47.682;9.170;2023-04-15T13:14:03;4.03;;;1.58;;
63444;SDS011;49573;47.682;9.170;2023-04-15T13:16:50;3.67;;;1.73;;
63444;SDS011;49573;47.682;9.170;2023-04-15T13:19:37;4.90;;;2.00;;
63444;SDS011;49573;47.682;9.170;2023-04-15T13:22:23;5.82;;;1.77;;
63444;SDS011;49573;47.682;9.170;2023-04-15T13:25:09;4.68;;;2.10;;
63444;SDS011;49573;47.682;9.170;2023-04-15T13:27:57;4.68;;;2.03;;
63444;SDS011;49573;47.682;9.170;2023-04-15T13:30:43;5.28;;;2.38;;
63444;SDS011;49573;47.682;9.170;2023-04-15T13:33:30;4.88;;;2.13;;
63444;SDS011;49573;47.682;9.170;2023-04-15T13:36:16;5.30;;;2.20;;
63444;SDS011;49573;47.682;9.170;2023-04-15T13:39:02;4.22;;;1.92;;
63444;SDS011;49573;47.682;9.170;2023-04-15T13:41:50;4.10;;;2.03;;
63444;SDS011;49573;47.682;9.170;2023-04-15T13:44:38;7.72;;;1.98;;
63444;SDS011;49573;47.682;9.170;2023-04-15T13:47:25;3.97;;;2.05;;
63444;SDS011;49573;47.682;9.170;2023-04-15T13:50:11;3.95;;;1.90;;
63444;SDS011;49573;47.682;9.170;2023-04-15T13:52:58;4.88;;;1.90;;
63444;SDS011;49573;47.682;9.170;2023-04-15T13:55:44;3.97;;;1.60;;
63444;SDS011;49573;47.682;9.170;2023-04-15T13:58:31;4.18;;;1.95;;
63444;SDS011;49573;47.682;9.170;2023-04-15T14:01:18;2.35;;;1.42;;
63444;SDS011;49573;47.682;9.170;2023-04-15T14:04:05;5.60;;;1.80;;
63444;SDS011;49573;47.682;9.170;2023-04-15T14:06:51;2.58;;;1.58;;
63444;SDS011;49573;47.682;9.170;2023-04-15T14:09:38;3.10;;;1.80;;
63444;SDS011;49573;47.682;9.170;2023-04-15T14:12:24;4.60;;;1.80;;
63444;SDS011;49573;47.682;9.170;2023-04-15T14:15:11;4.00;;;1.77;;
63444;SDS011;49573;47.682;9.170;2023-04-15T14:17:59;5.95;;;1.60;;
63444;SDS011;49573;47.682;9.170;2023-04-15T14:20:46;5.28;;;1.83;;
63444;SDS011;49573;47.682;9.170;2023-04-15T14:23:32;5.50;;;1.90;;
63444;SDS011;49573;47.682;9.170;2023-04-15T14:26:19;2.70;;;1.67;;
63444;SDS011;49573;47.682;9.170;2023-04-15T14:29:05;2.38;;;1.95;;
63444;SDS011;49573;47.682;9.170;2023-04-15T14:31:51;4.07;;;1.83;;
63444;SDS011;49573;47.682;9.170;2023-04-15T14:34:39;3.78;;;1.90;;
63444;SDS011;49573;47.682;9.170;2023-04-15T14:37:26;3.40;;;2.00;;
63444;SDS011;49573;47.682;9.170;2023-04-15T14:40:12;3.90;;;1.95;;
63444;SDS011;49573;47.682;9.170;2023-04-15T14:42:58;9.30;;;2.30;;
63444;SDS011;49573;47.682;9.170;2023-04-15T14:45:45;3.63;;;2.10;;
63444;SDS011;49573;47.682;9.170;2023-04-15T14:48:32;8.35;;;2.13;;
63444;SDS011;49573;47.682;9.170;2023-04-15T14:51:19;2.57;;;1.67;;
63444;SDS011;49573;47.682;9.170;2023-04-15T14:54:06;4.03;;;2.10;;
63444;SDS011;49573;47.682;9.170;2023-04-15T14:56:52;5.20;;;2.20;;
63444;SDS011;49573;47.682;9.170;2023-04-15T14:59:38;3.63;;;1.95;;
63444;SDS011;49573;47.682;9.170;2023-04-15T15:02:24;4.70;;;2.03;;
63444;SDS011;49573;47.682;9.170;2023-04-15T15:05:10;5.93;;;1.90;;
63444;SDS011;49573;47.682;9.170;2023-04-15T15:07:57;3.15;;;2.10;;
63444;SDS011;49573;47.682;9.170;2023-04-15T15:10:43;2.45;;;1.75;;
63444;SDS011;49573;47.682;9.170;2023-04-15T15:13:29;4.10;;;1.70;;
63444;SDS011;49573;47.682;9.170;2023-04-15T15:16:16;5.68;;;2.10;;
63444;SDS011;49573;47.682;9.170;2023-04-15T15:19:02;4.60;;;2.30;;
63444;SDS011;49573;47.682;9.170;2023-04-15T15:21:48;3.63;;;2.30;;
63444;SDS011;49573;47.682;9.170;2023-04-15T15:24:36;4.60;;;2.37;;
63444;SDS011;49573;47.682;9.170;2023-04-15T15:27:22;3.97;;;2.10;;
63444;SDS011;49573;47.682;9.170;2023-04-15T15:30:09;3.58;;;2.10;;
63444;SDS011;49573;47.682;9.170;2023-04-15T15:32:55;3.95;;;1.80;;
63444;SDS011;49573;47.682;9.170;2023-04-15T15:35:41;4.63;;;2.20;;
63444;SDS011;49573;47.682;9.170;2023-04-15T15:38:28;4.40;;;1.88;;
63444;SDS011;49573;47.682;9.170;2023-04-15T15:41:16;4.73;;;2.00;;
63444;SDS011;49573;47.682;9.170;2023-04-15T15:44:02;4.57;;;2.25;;
63444;SDS011;49573;47.682;9.170;2023-04-15T15:46:48;4.75;;;2.80;;
63444;SDS011;49573;47.682;9.170;2023-04-15T15:49:35;4.35;;;2.70;;
63444;SDS011;49573;47.682;9.170;2023-04-15T15:52:21;3.95;;;2.38;;
63444;SDS011;49573;47.682;9.170;2023-04-15T15:55:07;4.32;;;2.50;;
63444;SDS011;49573;47.682;9.170;2023-04-15T15:57:55;4.03;;;2.47;;
63444;SDS011;49573;47.682;9.170;2023-04-15T16:00:41;6.47;;;2.78;;
63444;SDS011;49573;47.682;9.170;2023-04-15T16:03:27;5.10;;;2.33;;
63444;SDS011;49573;47.682;9.170;2023-04-15T16:06:13;5.10;;;2.40;;
63444;SDS011;49573;47.682;9.170;2023-04-15T16:08:59;6.45;;;2.33;;
63444;SDS011;49573;47.682;9.170;2023-04-15T16:11:46;4.10;;;1.90;;
63444;SDS011;49573;47.682;9.170;2023-04-15T16:14:33;4.13;;;2.30;;
63444;SDS011;49573;47.682;9.170;2023-04-15T16:17:19;3.42;;;1.95;;
63444;SDS011;49573;47.682;9.170;2023-04-15T16:20:05;4.30;;;2.10;;
63444;SDS011;49573;47.682;9.170;2023-04-15T16:22:52;3.40;;;2.53;;
63444;SDS011;49573;47.682;9.170;2023-04-15T16:25:39;2.77;;;2.00;;
63444;SDS011;49573;47.682;9.170;2023-04-15T16:28:26;5.00;;;2.35;;
63444;SDS011;49573;47.682;9.170;2023-04-15T16:31:13;2.83;;;2.10;;
63444;SDS011;49573;47.682;9.170;2023-04-15T16:33:59;3.03;;;1.95;;
63444;SDS011;49573;47.682;9.170;2023-04-15T16:36:45;4.53;;;2.38;;
63444;SDS011;49573;47.682;9.170;2023-04-15T16:39:31;2.78;;;1.73;;
63444;SDS011;49573;47.682;9.170;2023-04-15T16:42:18;2.57;;;1.90;;
63444;SDS011;49573;47.682;9.170;2023-04-15T16:45:04;4.40;;;1.70;;
63444;SDS011;49573;47.682;9.170;2023-04-15T16:47:52;3.10;;;1.90;;
63444;SDS011;49573;47.682;9.170;2023-04-15T16:50:38;3.13;;;1.85;;
63444;SDS011;49573;47.682;9.170;2023-04-15T16:53:24;2.53;;;1.88;;
63444;SDS011;49573;47.682;9.170;2023-04-15T16:56:10;2.77;;;2.07;;
63444;SDS011;49573;47.682;9.170;2023-04-15T16:58:56;4.15;;;1.80;;
63444;SDS011;49573;47.682;9.170;2023-04-15T17:01:42;2.85;;;1.65;;
63444;SDS011;49573;47.682;9.170;2023-04-15T17:04:30;3.00;;;1.60;;
63444;SDS011;49573;47.682;9.170;2023-04-15T17:07:16;3.03;;;1.80;;